createdAt,value
2017-12-24T00:00:31.150Z,1020.16
2017-12-24T00:01:13.672Z,1020.1
2017-12-24T00:01:52.758Z,1020.12
2017-12-24T00:02:33.545Z,1020.13
2017-12-24T00:03:14.184Z,1020.14
2017-12-24T00:03:54.719Z,1020.11
2017-12-24T00:04:35.300Z,1020.01
2017-12-24T00:05:15.637Z,1020.09
2017-12-24T00:05:56.296Z,1019.99
2017-12-24T00:06:37.400Z,1020.03
2017-12-24T00:07:18.814Z,1019.88
2017-12-24T00:07:59.512Z,1019.98
2017-12-24T00:08:40.302Z,1020.04
2017-12-24T00:09:20.797Z,1019.95
2017-12-24T00:10:02.752Z,1019.96
2017-12-24T00:13:37.576Z,1019.86
2017-12-24T00:14:18.737Z,1019.88
2017-12-24T00:14:59.419Z,1019.85
2017-12-24T00:15:40.985Z,1019.84
2017-12-24T00:16:21.519Z,1019.88
2017-12-24T00:17:03.414Z,1019.82
2017-12-24T00:17:43.780Z,1019.84
2017-12-24T00:18:24.360Z,1019.87
2017-12-24T00:19:05.328Z,1019.86
2017-12-24T00:19:46.106Z,1019.87
2017-12-24T00:20:26.534Z,1019.73
2017-12-24T00:21:07.307Z,1019.72
2017-12-24T00:21:48.174Z,1019.85
2017-12-24T00:22:29.239Z,1019.78
2017-12-24T00:23:09.731Z,1019.81
2017-12-24T00:23:50.451Z,1019.79
2017-12-24T00:24:31.934Z,1019.77
2017-12-24T00:25:12.488Z,1019.77
2017-12-24T00:25:53.561Z,1019.78
2017-12-24T00:26:34.097Z,1019.84
2017-12-24T00:27:14.475Z,1019.81
2017-12-24T00:27:55.403Z,1019.77
2017-12-24T00:28:38.894Z,1019.71
2017-12-24T00:29:19.295Z,1019.86
2017-12-24T00:30:01.012Z,1019.86
2017-12-24T00:30:41.192Z,1019.88
2017-12-24T00:31:21.886Z,1019.87
2017-12-24T00:32:02.452Z,1019.88
2017-12-24T00:32:43.095Z,1019.8
2017-12-24T00:33:23.527Z,1019.85
2017-12-24T00:34:04.183Z,1019.77
2017-12-24T00:34:44.515Z,1019.75
2017-12-24T00:35:25.156Z,1019.75
2017-12-24T00:36:06.216Z,1019.71
2017-12-24T00:36:47.976Z,1019.73
2017-12-24T00:37:28.071Z,1019.71
2017-12-24T00:38:08.693Z,1019.69
2017-12-24T00:38:49.075Z,1019.75
2017-12-24T00:39:31.035Z,1019.65
2017-12-24T00:40:11.542Z,1019.59
2017-12-24T00:40:52.457Z,1019.44
2017-12-24T00:41:33.310Z,1019.61
2017-12-24T00:42:14.001Z,1019.64
2017-12-24T00:42:54.660Z,1019.39
2017-12-24T00:43:35.704Z,1019.63
2017-12-24T00:44:16.364Z,1019.59
2017-12-24T00:44:56.665Z,1019.64
2017-12-24T00:45:38.788Z,1019.61
2017-12-24T00:46:18.722Z,1019.62
2017-12-24T00:46:59.095Z,1019.61
2017-12-24T00:47:40.474Z,1019.6
2017-12-24T00:48:21.465Z,1019.6
2017-12-24T00:49:01.904Z,1019.62
2017-12-24T00:49:42.924Z,1019.69
2017-12-24T00:50:22.844Z,1019.53
2017-12-24T00:51:03.293Z,1019.68
2017-12-24T00:51:43.743Z,1019.71
2017-12-24T00:52:24.396Z,1019.65
2017-12-24T00:53:04.845Z,1019.6
2017-12-24T00:53:45.230Z,1019.57
2017-12-24T00:54:25.881Z,1019.57
2017-12-24T00:55:06.495Z,1019.62
2017-12-24T00:55:46.968Z,1019.65
2017-12-24T00:56:28.016Z,1019.64
2017-12-24T00:57:08.733Z,1019.64
2017-12-24T00:57:50.004Z,1019.69
2017-12-24T00:58:31.371Z,1019.59
2017-12-24T00:59:11.795Z,1019.37
2017-12-24T00:59:52.419Z,1019.6
2017-12-24T01:00:35.198Z,1019.68
2017-12-24T01:01:17.647Z,1019.61
2017-12-24T01:01:58.153Z,1019.38
2017-12-24T01:02:39.331Z,1019.46
2017-12-24T01:03:19.666Z,1019.43
2017-12-24T01:04:00.029Z,1019.41
2017-12-24T01:04:41.043Z,1019.41
2017-12-24T01:05:21.547Z,1019.35
2017-12-24T01:06:02.581Z,1019.4
2017-12-24T01:06:43.401Z,1019.37
2017-12-24T01:07:24.143Z,1019.33
2017-12-24T01:08:04.226Z,1019.28
2017-12-24T01:08:45.175Z,1019.28
2017-12-24T01:09:25.935Z,1019.26
2017-12-24T01:10:06.550Z,1019.2
2017-12-24T01:10:47.022Z,1019.23
2017-12-24T01:13:27.056Z,1019.2
2017-12-24T01:15:20.853Z,1019.11
2017-12-24T01:16:00.668Z,1019.19
2017-12-24T01:16:41.765Z,1019.03
2017-12-24T01:17:22.351Z,1019.2
2017-12-24T01:18:04.718Z,1019.29
2017-12-24T01:18:45.028Z,1019.21
2017-12-24T01:19:26.405Z,1019.28
2017-12-24T01:20:06.703Z,1019.33
2017-12-24T01:20:48.532Z,1019.24
2017-12-24T01:21:29.587Z,1019.3
2017-12-24T01:22:10.212Z,1019.24
2017-12-24T01:22:50.663Z,1019.27
2017-12-24T01:23:31.591Z,1019.29
2017-12-24T01:24:11.993Z,1019.29
2017-12-24T01:24:52.792Z,1019.26
2017-12-24T01:25:33.700Z,1019.26
2017-12-24T01:26:14.575Z,1019.25
2017-12-24T01:26:55.474Z,1019.3
2017-12-24T01:27:36.194Z,1019.26
2017-12-24T01:28:17.696Z,1019.25
2017-12-24T01:28:59.660Z,1019.2
2017-12-24T01:29:40.433Z,1019.24
2017-12-24T01:30:22.100Z,1019.27
2017-12-24T01:31:02.477Z,1019.23
2017-12-24T01:31:43.363Z,1019.25
2017-12-24T01:32:23.955Z,1019.28
2017-12-24T01:33:04.448Z,1019.26
2017-12-24T01:33:45.223Z,1019.2
2017-12-24T01:34:25.718Z,1019.27
2017-12-24T01:35:06.117Z,1019.28
2017-12-24T01:35:46.725Z,1019.33
2017-12-24T01:36:27.025Z,1019.21
2017-12-24T01:37:07.821Z,1019.22
2017-12-24T01:37:48.476Z,1019.26
2017-12-24T01:38:29.001Z,1019.21
2017-12-24T01:39:10.328Z,1019.26
2017-12-24T01:39:50.628Z,1019.27
2017-12-24T01:40:31.184Z,1019.28
2017-12-24T01:41:12.315Z,1019.22
2017-12-24T01:41:53.153Z,1019.28
2017-12-24T01:42:33.515Z,1019.29
2017-12-24T01:43:14.406Z,1019.28
2017-12-24T01:48:09.162Z,1019.29
2017-12-24T01:48:57.883Z,1019.33
2017-12-24T01:49:47.138Z,1019.28
2017-12-24T01:50:43.890Z,1019.33
2017-12-24T01:51:28.632Z,1019.23
2017-12-24T01:54:59.053Z,1019.36
2017-12-24T01:56:49.856Z,1019.31
2017-12-24T01:57:30.136Z,1019.4
2017-12-24T01:58:11.030Z,1019.37
2017-12-24T01:58:51.734Z,1019.34
2017-12-24T01:59:32.276Z,1019.24
2017-12-24T02:00:12.652Z,1019.36
2017-12-24T02:00:53.100Z,1019.3
2017-12-24T02:01:33.592Z,1019.24
2017-12-24T02:02:14.306Z,1019.44
2017-12-24T02:02:55.850Z,1019.44
2017-12-24T02:03:35.924Z,1019.43
2017-12-24T02:04:16.603Z,1019.45
2017-12-24T02:04:57.491Z,1019.46
2017-12-24T02:05:38.528Z,1019.45
2017-12-24T02:06:18.839Z,1019.38
2017-12-24T02:06:59.221Z,1019.43
2017-12-24T02:07:39.909Z,1019.39
2017-12-24T02:08:21.240Z,1019.43
2017-12-24T02:09:01.841Z,1019.41
2017-12-24T02:09:42.491Z,1019.38
2017-12-24T02:10:23.595Z,1019.36
2017-12-24T02:11:04.003Z,1019.4
2017-12-24T02:11:44.792Z,1019.43
2017-12-24T02:12:25.144Z,1019.45
2017-12-24T02:13:05.785Z,1019.43
2017-12-24T02:15:26.304Z,1019.36
2017-12-24T02:16:06.915Z,1019.33
2017-12-24T02:16:47.729Z,1019.29
2017-12-24T02:17:28.583Z,1019.31
2017-12-24T02:18:09.710Z,1019.36
2017-12-24T02:18:49.940Z,1019.15
2017-12-24T02:19:30.421Z,1019.2
2017-12-24T02:20:10.711Z,1019.25
2017-12-24T02:20:51.479Z,1019.24
2017-12-24T02:21:32.144Z,1019.2
2017-12-24T02:22:13.014Z,1019.14
2017-12-24T02:22:53.332Z,1019.19
2017-12-24T02:23:33.898Z,1019.15
2017-12-24T02:24:14.628Z,1019.19
2017-12-24T02:24:55.085Z,1019.14
2017-12-24T02:25:36.049Z,1019.19
2017-12-24T02:26:17.046Z,1019.13
2017-12-24T02:26:57.561Z,1019.04
2017-12-24T02:27:39.102Z,1019.27
2017-12-24T02:28:19.529Z,1019.23
2017-12-24T02:29:00.070Z,1019.17
2017-12-24T02:29:40.761Z,1019.16
2017-12-24T02:30:21.485Z,1019.15
2017-12-24T02:31:02.327Z,1019.1
2017-12-24T02:31:43.296Z,1019.16
2017-12-24T02:32:23.763Z,1019.17
2017-12-24T02:33:04.254Z,1019.1
2017-12-24T02:33:44.911Z,1019.09
2017-12-24T02:34:25.874Z,1018.97
2017-12-24T02:35:06.825Z,1019.02
2017-12-24T02:35:47.324Z,1019
2017-12-24T02:36:27.938Z,1019.04
2017-12-24T02:37:08.510Z,1019
2017-12-24T02:37:49.497Z,1019
2017-12-24T02:38:30.805Z,1018.99
2017-12-24T02:39:13.912Z,1018.99
2017-12-24T02:39:54.853Z,1018.94
2017-12-24T02:40:35.385Z,1019
2017-12-24T02:41:16.560Z,1018.92
2017-12-24T02:41:57.239Z,1018.99
2017-12-24T02:42:37.771Z,1018.97
2017-12-24T02:43:18.338Z,1018.95
2017-12-24T02:43:58.882Z,1019.01
2017-12-24T02:44:39.697Z,1018.95
2017-12-24T02:45:20.888Z,1019.04
2017-12-24T02:46:01.265Z,1018.99
2017-12-24T02:46:42.043Z,1018.93
2017-12-24T02:47:22.728Z,1018.97
2017-12-24T02:48:03.326Z,1019.03
2017-12-24T02:48:43.771Z,1019.04
2017-12-24T02:49:24.232Z,1018.93
2017-12-24T02:50:05.435Z,1019
2017-12-24T02:50:45.833Z,1018.91
2017-12-24T02:51:26.226Z,1018.99
2017-12-24T02:52:06.796Z,1018.93
2017-12-24T02:52:47.416Z,1018.97
2017-12-24T02:53:27.960Z,1019.03
2017-12-24T02:54:08.481Z,1018.94
2017-12-24T02:54:49.341Z,1018.92
2017-12-24T02:55:31.125Z,1018.91
2017-12-24T02:56:10.646Z,1018.85
2017-12-24T02:56:51.182Z,1018.91
2017-12-24T02:57:31.868Z,1018.98
2017-12-24T02:58:12.671Z,1018.86
2017-12-24T02:58:53.580Z,1018.98
2017-12-24T02:59:34.408Z,1018.99
2017-12-24T03:00:14.812Z,1018.9
2017-12-24T03:00:55.977Z,1018.96
2017-12-24T03:01:36.285Z,1018.97
2017-12-24T03:02:16.957Z,1018.76
2017-12-24T03:02:57.514Z,1018.91
2017-12-24T03:03:38.625Z,1018.95
2017-12-24T03:04:19.099Z,1019.01
2017-12-24T03:05:00.159Z,1018.83
2017-12-24T03:05:41.032Z,1018.96
2017-12-24T03:06:21.596Z,1018.78
2017-12-24T03:07:01.923Z,1018.96
2017-12-24T03:07:42.653Z,1018.79
2017-12-24T03:08:23.855Z,1018.79
2017-12-24T03:09:04.252Z,1018.89
2017-12-24T03:09:45.643Z,1018.85
2017-12-24T03:10:25.843Z,1018.84
2017-12-24T03:11:07.747Z,1018.72
2017-12-24T03:11:48.464Z,1018.88
2017-12-24T03:12:30.168Z,1018.78
2017-12-24T03:13:10.870Z,1018.84
2017-12-24T03:13:52.011Z,1018.9
2017-12-24T03:14:32.478Z,1018.76
2017-12-24T03:15:12.771Z,1018.81
2017-12-24T03:15:53.451Z,1018.64
2017-12-24T03:16:34.040Z,1018.77
2017-12-24T03:17:14.464Z,1018.79
2017-12-24T03:17:55.105Z,1018.77
2017-12-24T03:18:35.460Z,1018.69
2017-12-24T03:19:16.892Z,1018.75
2017-12-24T03:19:58.045Z,1018.42
2017-12-24T03:20:38.735Z,1018.71
2017-12-24T03:23:06.636Z,1018.63
2017-12-24T03:23:45.657Z,1018.51
2017-12-24T03:24:26.106Z,1018.4
2017-12-24T03:25:06.258Z,1018.5
2017-12-24T03:25:47.448Z,1018.52
2017-12-24T03:27:46.376Z,1018.31
2017-12-24T03:28:25.150Z,1018.46
2017-12-24T03:29:06.032Z,1018.43
2017-12-24T03:29:46.652Z,1018.53
2017-12-24T03:30:27.101Z,1018.51
2017-12-24T03:31:07.484Z,1018.53
2017-12-24T03:31:48.289Z,1018.5
2017-12-24T03:32:28.510Z,1018.55
2017-12-24T03:33:09.044Z,1018.56
2017-12-24T03:33:49.487Z,1018.54
2017-12-24T03:34:30.742Z,1018.53
2017-12-24T03:35:11.680Z,1018.46
2017-12-24T03:35:52.407Z,1018.47
2017-12-24T03:36:32.650Z,1018.44
2017-12-24T03:37:13.134Z,1018.51
2017-12-24T03:37:54.165Z,1018.42
2017-12-24T03:38:34.908Z,1018.54
2017-12-24T03:39:15.324Z,1018.5
2017-12-24T03:39:55.850Z,1018.53
2017-12-24T03:40:36.212Z,1018.55
2017-12-24T03:41:16.955Z,1018.46
2017-12-24T03:41:57.759Z,1018.55
2017-12-24T03:42:38.209Z,1018.58
2017-12-24T03:43:18.981Z,1018.38
2017-12-24T03:44:00.368Z,1018.58
2017-12-24T03:44:41.007Z,1018.56
2017-12-24T03:45:21.668Z,1018.54
2017-12-24T03:46:02.391Z,1018.59
2017-12-24T03:46:43.245Z,1018.58
2017-12-24T03:47:24.602Z,1018.58
2017-12-24T03:48:05.157Z,1018.61
2017-12-24T03:48:45.573Z,1018.56
2017-12-24T03:49:27.028Z,1018.56
2017-12-24T03:50:06.848Z,1018.48
2017-12-24T03:50:48.439Z,1018.54
2017-12-24T03:51:29.010Z,1018.51
2017-12-24T03:52:09.905Z,1018.36
2017-12-24T03:52:50.284Z,1018.47
2017-12-24T03:53:30.837Z,1018.37
2017-12-24T03:54:11.542Z,1018.48
2017-12-24T03:54:52.336Z,1018.51
2017-12-24T03:55:32.858Z,1018.48
2017-12-24T03:56:13.550Z,1018.6
2017-12-24T03:56:54.348Z,1018.59
2017-12-24T03:57:35.467Z,1018.59
2017-12-24T03:58:15.822Z,1018.6
2017-12-24T03:58:57.112Z,1018.5
2017-12-24T03:59:37.487Z,1018.47
2017-12-24T04:00:18.097Z,1018.55
2017-12-24T04:00:58.762Z,1018.42
2017-12-24T04:41:35.762Z,1018.16
2017-12-24T04:42:21.238Z,1018.16
2017-12-24T04:43:03.298Z,1018.27
2017-12-24T04:43:43.438Z,1018.26
2017-12-24T04:44:26.034Z,1018.14
2017-12-24T04:45:06.969Z,1018.13
2017-12-24T04:45:47.305Z,1018.26
2017-12-24T04:46:29.913Z,1018.26
2017-12-24T04:47:10.794Z,1018.23
2017-12-24T04:47:51.244Z,1018.26
2017-12-24T04:48:38.424Z,1018.25
2017-12-24T04:49:18.860Z,1018.22
2017-12-24T04:50:03.539Z,1018.2
2017-12-24T04:50:52.043Z,1018.25
2017-12-24T04:51:31.753Z,1018.21
2017-12-24T04:52:12.316Z,1018.27
2017-12-24T04:52:52.895Z,1018.23
2017-12-24T04:53:33.558Z,1018.16
2017-12-24T04:54:14.067Z,1018.22
2017-12-24T04:54:54.420Z,1018.31
2017-12-24T04:55:34.862Z,1018.23
2017-12-24T04:56:15.466Z,1018.19
2017-12-24T04:56:56.941Z,1018.24
2017-12-24T04:57:38.300Z,1018.17
2017-12-24T04:58:18.763Z,1018.26
2017-12-24T04:58:59.394Z,1018.25
2017-12-24T04:59:39.822Z,1018.26
2017-12-24T05:00:20.784Z,1018.28
2017-12-24T05:01:01.202Z,1018.25
2017-12-24T05:01:41.683Z,1018.17
2017-12-24T05:02:23.793Z,1018.25
2017-12-24T05:06:04.206Z,1018.17
2017-12-24T05:07:57.868Z,1018.18
2017-12-24T05:08:38.444Z,1018.19
2017-12-24T05:09:18.620Z,1018.18
2017-12-24T05:09:59.035Z,1018.16
2017-12-24T05:10:39.454Z,1018.14
2017-12-24T05:11:20.261Z,1018.17
2017-12-24T05:12:01.347Z,1018.13
2017-12-24T05:12:41.672Z,1018.12
2017-12-24T05:13:22.083Z,1018.09
2017-12-24T05:14:02.632Z,1017.96
2017-12-24T05:14:43.435Z,1018.09
2017-12-24T05:15:24.057Z,1018.08
2017-12-24T05:16:06.003Z,1018.12
2017-12-24T05:16:47.211Z,1018.11
2017-12-24T05:17:28.069Z,1018.05
2017-12-24T05:18:09.143Z,1018.1
2017-12-24T05:18:49.650Z,1018.02
2017-12-24T05:19:30.842Z,1018.12
2017-12-24T05:20:11.887Z,1018.04
2017-12-24T05:20:52.527Z,1018.08
2017-12-24T05:21:32.826Z,1018.01
2017-12-24T05:22:13.444Z,1018.03
2017-12-24T05:22:53.738Z,1018.04
2017-12-24T05:23:34.360Z,1018.02
2017-12-24T05:24:14.808Z,1018.05
2017-12-24T05:24:56.603Z,1018.06
2017-12-24T05:25:36.271Z,1018.07
2017-12-24T05:26:17.035Z,1018.03
2017-12-24T05:26:57.521Z,1018.01
2017-12-24T05:27:38.425Z,1018.01
2017-12-24T05:28:19.111Z,1018.07
2017-12-24T05:28:59.510Z,1018.07
2017-12-24T05:29:40.008Z,1018.04
2017-12-24T05:30:20.449Z,1018.03
2017-12-24T05:31:01.526Z,1018.05
2017-12-24T05:31:42.060Z,1018.02
2017-12-24T05:32:22.366Z,1018.02
2017-12-24T05:33:03.571Z,1018
2017-12-24T05:33:44.065Z,1017.99
2017-12-24T05:34:24.857Z,1017.94
2017-12-24T05:35:05.766Z,1018
2017-12-24T05:35:48.146Z,1017.99
2017-12-24T05:36:28.614Z,1018.02
2017-12-24T05:37:09.061Z,1018
2017-12-24T05:37:49.543Z,1018.02
2017-12-24T05:38:29.942Z,1018
2017-12-24T05:39:11.805Z,1017.99
2017-12-24T05:39:52.429Z,1017.97
2017-12-24T05:40:33.337Z,1018.05
2017-12-24T05:41:13.482Z,1018
2017-12-24T05:41:54.490Z,1017.96
2017-12-24T05:42:34.818Z,1017.98
2017-12-24T05:43:15.452Z,1017.99
2017-12-24T05:43:55.720Z,1017.96
2017-12-24T05:44:36.812Z,1017.96
2017-12-24T05:45:17.729Z,1017.98
2017-12-24T05:45:58.717Z,1017.98
2017-12-24T05:46:39.742Z,1018.01
2017-12-24T05:47:20.454Z,1017.99
2017-12-24T05:48:01.038Z,1017.86
2017-12-24T05:48:41.398Z,1017.99
2017-12-24T05:49:25.317Z,1017.97
2017-12-24T05:50:05.794Z,1018.04
2017-12-24T05:50:46.616Z,1017.95
2017-12-24T05:51:26.872Z,1017.94
2017-12-24T05:52:09.340Z,1018
2017-12-24T05:52:50.100Z,1017.97
2017-12-24T05:53:30.799Z,1017.95
2017-12-24T05:54:12.414Z,1017.93
2017-12-24T05:54:52.108Z,1017.95
2017-12-24T05:55:32.667Z,1017.91
2017-12-24T05:56:13.111Z,1017.91
2017-12-24T05:56:53.734Z,1018
2017-12-24T05:57:34.899Z,1017.9
2017-12-24T05:59:38.687Z,1017.99
2017-12-24T06:01:29.726Z,1018.05
2017-12-24T06:02:13.971Z,1017.99
2017-12-24T06:02:55.032Z,1017.97
2017-12-24T06:03:35.560Z,1017.95
2017-12-24T06:04:17.028Z,1018.04
2017-12-24T06:04:57.996Z,1017.99
2017-12-24T06:05:38.552Z,1017.92
2017-12-24T06:06:19.010Z,1017.98
2017-12-24T06:06:59.373Z,1018.03
2017-12-24T06:07:40.944Z,1017.97
2017-12-24T06:08:21.964Z,1017.99
2017-12-24T06:09:02.465Z,1017.98
2017-12-24T06:09:42.791Z,1017.93
2017-12-24T06:10:23.450Z,1018
2017-12-24T06:11:03.809Z,1017.94
2017-12-24T06:11:44.650Z,1017.92
2017-12-24T06:12:25.109Z,1017.95
2017-12-24T06:13:06.164Z,1017.84
2017-12-24T06:13:46.841Z,1017.94
2017-12-24T06:14:27.225Z,1017.92
2017-12-24T06:15:08.195Z,1017.9
2017-12-24T06:15:49.371Z,1017.84
2017-12-24T06:16:30.241Z,1017.91
2017-12-24T06:17:10.877Z,1017.91
2017-12-24T06:17:51.269Z,1017.91
2017-12-24T06:18:32.172Z,1017.93
2017-12-24T06:19:12.672Z,1017.85
2017-12-24T06:19:53.145Z,1017.91
2017-12-24T06:20:34.491Z,1017.92
2017-12-24T06:21:15.653Z,1017.93
2017-12-24T06:21:55.872Z,1017.89
2017-12-24T06:22:36.639Z,1017.91
2017-12-24T06:23:17.033Z,1017.86
2017-12-24T06:23:57.539Z,1017.92
2017-12-24T06:24:38.362Z,1017.92
2017-12-24T06:25:19.152Z,1017.87
2017-12-24T06:25:59.535Z,1018
2017-12-24T06:26:39.982Z,1017.93
2017-12-24T06:27:20.418Z,1017.93
2017-12-24T06:28:01.097Z,1017.93
2017-12-24T06:28:41.470Z,1017.91
2017-12-24T06:29:22.060Z,1017.89
2017-12-24T06:30:03.328Z,1017.91
2017-12-24T06:30:44.580Z,1017.89
2017-12-24T06:31:24.700Z,1017.85
2017-12-24T06:32:05.663Z,1017.91
2017-12-24T06:32:46.193Z,1017.86
2017-12-24T06:33:26.548Z,1017.83
2017-12-24T06:34:07.108Z,1017.8
2017-12-24T06:34:47.795Z,1017.95
2017-12-24T06:35:28.492Z,1017.81
2017-12-24T06:36:08.891Z,1017.92
2017-12-24T06:36:49.854Z,1017.95
2017-12-24T06:37:31.162Z,1017.89
2017-12-24T06:38:11.881Z,1017.97
2017-12-24T06:38:52.355Z,1017.91
2017-12-24T06:39:32.847Z,1017.9
2017-12-24T06:40:13.583Z,1017.92
2017-12-24T06:40:54.125Z,1017.88
2017-12-24T06:41:34.659Z,1017.87
2017-12-24T06:42:15.378Z,1017.91
2017-12-24T06:42:55.765Z,1017.93
2017-12-24T06:43:36.901Z,1017.95
2017-12-24T06:44:17.612Z,1017.91
2017-12-24T06:44:58.816Z,1017.94
2017-12-24T06:45:39.308Z,1018.01
2017-12-24T06:46:19.825Z,1017.88
2017-12-24T06:47:00.726Z,1017.85
2017-12-24T06:47:41.354Z,1017.99
2017-12-24T06:48:22.519Z,1017.9
2017-12-24T06:49:03.484Z,1017.91
2017-12-24T06:49:43.969Z,1017.92
2017-12-24T06:50:24.445Z,1017.94
2017-12-24T06:51:05.266Z,1018.04
2017-12-24T06:51:46.535Z,1017.92
2017-12-24T06:52:27.048Z,1017.86
2017-12-24T06:53:08.150Z,1017.92
2017-12-24T06:53:48.773Z,1017.86
2017-12-24T06:54:30.464Z,1017.8
2017-12-24T06:55:10.286Z,1017.93
2017-12-24T06:55:50.720Z,1017.95
2017-12-24T06:56:31.615Z,1017.93
2017-12-24T06:57:12.710Z,1017.9
2017-12-24T06:57:53.287Z,1017.92
2017-12-24T06:58:34.019Z,1018.02
2017-12-24T07:00:50.708Z,1017.97
2017-12-24T07:01:35.132Z,1017.9
2017-12-24T07:02:15.737Z,1017.93
2017-12-24T07:02:56.498Z,1017.91
2017-12-24T07:03:38.173Z,1017.92
2017-12-24T07:04:18.685Z,1017.9
2017-12-24T07:04:59.101Z,1017.9
2017-12-24T07:05:39.620Z,1017.86
2017-12-24T07:06:19.971Z,1017.91
2017-12-24T07:07:00.704Z,1017.8
2017-12-24T07:07:41.801Z,1017.88
2017-12-24T07:08:22.206Z,1017.83
2017-12-24T07:09:02.762Z,1017.85
2017-12-24T07:09:43.166Z,1017.85
2017-12-24T07:10:23.693Z,1017.89
2017-12-24T07:11:04.357Z,1017.85
2017-12-24T07:11:45.726Z,1017.82
2017-12-24T07:12:26.276Z,1017.85
2017-12-24T07:13:06.684Z,1017.82
2017-12-24T07:13:47.151Z,1017.8
2017-12-24T07:14:27.921Z,1017.88
2017-12-24T07:15:08.029Z,1017.88
2017-12-24T07:15:49.281Z,1017.89
2017-12-24T07:18:30.681Z,1017.84
2017-12-24T07:19:11.481Z,1017.87
2017-12-24T07:19:52.344Z,1017.85
2017-12-24T07:20:32.084Z,1017.71
2017-12-24T07:21:12.798Z,1017.8
2017-12-24T07:21:53.173Z,1017.88
2017-12-24T07:22:33.548Z,1017.9
2017-12-24T07:23:14.384Z,1017.88
2017-12-24T07:23:54.818Z,1017.85
2017-12-24T07:24:35.448Z,1017.88
2017-12-24T07:25:15.557Z,1017.88
2017-12-24T07:25:56.085Z,1017.83
2017-12-24T07:28:21.633Z,1017.83
2017-12-24T07:29:10.160Z,1017.83
2017-12-24T07:33:37.707Z,1017.85
2017-12-24T07:34:18.933Z,1017.87
2017-12-24T07:34:59.182Z,1017.94
2017-12-24T07:35:40.139Z,1017.88
2017-12-24T07:36:20.502Z,1017.85
2017-12-24T07:37:01.074Z,1017.85
2017-12-24T07:37:42.056Z,1017.9
2017-12-24T07:38:22.518Z,1017.95
2017-12-24T07:39:03.262Z,1017.98
2017-12-24T07:39:44.396Z,1018.03
2017-12-24T07:40:24.396Z,1017.95
2017-12-24T07:41:04.934Z,1017.93
2017-12-24T07:41:45.448Z,1017.94
2017-12-24T07:42:25.819Z,1017.96
2017-12-24T07:43:06.263Z,1017.97
2017-12-24T07:43:46.774Z,1018.02
2017-12-24T07:44:27.856Z,1017.96
2017-12-24T07:45:08.067Z,1017.94
2017-12-24T07:45:48.820Z,1017.84
2017-12-24T07:46:29.106Z,1017.95
2017-12-24T07:47:09.760Z,1017.73
2017-12-24T07:47:50.211Z,1017.98
2017-12-24T07:48:31.076Z,1017.97
2017-12-24T07:49:12.099Z,1017.89
2017-12-24T07:49:52.500Z,1017.96
2017-12-24T07:50:33.377Z,1017.97
2017-12-24T07:51:13.503Z,1017.99
2017-12-24T07:51:53.843Z,1017.98
2017-12-24T07:52:34.765Z,1017.96
2017-12-24T07:53:15.185Z,1017.83
2017-12-24T07:53:56.501Z,1017.91
2017-12-24T07:54:37.619Z,1017.95
2017-12-24T07:55:19.252Z,1017.85
2017-12-24T07:56:00.266Z,1017.96
2017-12-24T07:56:40.211Z,1017.87
2017-12-24T07:57:20.821Z,1017.9
2017-12-24T07:58:01.412Z,1017.93
2017-12-24T07:58:42.002Z,1017.97
2017-12-24T07:59:23.064Z,1017.94
2017-12-24T08:00:03.811Z,1017.99
2017-12-24T08:00:44.254Z,1017.98
2017-12-24T08:01:25.568Z,1017.87
2017-12-24T08:02:06.306Z,1017.87
2017-12-24T08:02:46.856Z,1017.95
2017-12-24T08:03:27.366Z,1017.93
2017-12-24T08:04:08.195Z,1017.92
2017-12-24T08:04:48.571Z,1017.9
2017-12-24T08:05:30.857Z,1017.91
2017-12-24T08:06:11.978Z,1017.93
2017-12-24T08:06:53.168Z,1017.93
2017-12-24T08:07:33.593Z,1017.93
2017-12-24T08:08:13.935Z,1017.92
2017-12-24T08:08:54.567Z,1017.89
2017-12-24T08:09:35.270Z,1017.87
2017-12-24T08:10:16.856Z,1017.92
2017-12-24T08:10:57.211Z,1017.82
2017-12-24T08:11:38.210Z,1017.89
2017-12-24T08:12:18.819Z,1017.81
2017-12-24T08:12:59.084Z,1017.89
2017-12-24T08:13:40.580Z,1017.8
2017-12-24T08:14:21.220Z,1017.85
2017-12-24T08:15:02.045Z,1017.84
2017-12-24T08:15:42.370Z,1017.83
2017-12-24T08:16:23.153Z,1017.8
2017-12-24T08:17:03.989Z,1017.83
2017-12-24T08:17:44.618Z,1017.92
2017-12-24T08:18:25.923Z,1017.78
2017-12-24T08:19:06.041Z,1017.83
2017-12-24T08:19:47.121Z,1017.79
2017-12-24T08:20:27.372Z,1017.84
2017-12-24T08:21:07.972Z,1017.82
2017-12-24T08:21:49.109Z,1017.84
2017-12-24T08:23:54.866Z,1017.86
2017-12-24T08:24:37.966Z,1017.89
2017-12-24T08:25:17.684Z,1017.85
2017-12-24T08:25:58.135Z,1017.7
2017-12-24T08:26:38.957Z,1017.89
2017-12-24T08:27:20.626Z,1017.81
2017-12-24T08:28:01.183Z,1017.79
2017-12-24T08:28:42.520Z,1017.98
2017-12-24T08:29:23.069Z,1017.93
2017-12-24T08:30:05.485Z,1017.93
2017-12-24T08:30:47.491Z,1017.78
2017-12-24T08:31:27.849Z,1017.72
2017-12-24T08:32:09.004Z,1017.8
2017-12-24T08:32:49.696Z,1017.73
2017-12-24T08:33:30.595Z,1017.88
2017-12-24T08:36:04.154Z,1017.87
2017-12-24T08:36:47.600Z,1017.83
2017-12-24T08:37:28.230Z,1017.85
2017-12-24T08:38:08.935Z,1017.81
2017-12-24T08:38:49.435Z,1017.87
2017-12-24T08:39:29.685Z,1017.85
2017-12-24T08:40:11.385Z,1017.86
2017-12-24T08:40:52.319Z,1017.87
2017-12-24T08:41:33.535Z,1017.84
2017-12-24T08:42:14.027Z,1017.83
2017-12-24T08:42:55.137Z,1017.83
2017-12-24T08:43:35.606Z,1017.84
2017-12-24T08:44:16.290Z,1017.82
2017-12-24T08:44:56.506Z,1017.86
2017-12-24T08:45:36.979Z,1017.82
2017-12-24T08:46:17.439Z,1017.82
2017-12-24T08:46:59.247Z,1017.79
2017-12-24T08:47:39.733Z,1017.79
2017-12-24T08:48:20.411Z,1017.8
2017-12-24T08:49:01.098Z,1017.73
2017-12-24T08:49:41.792Z,1017.82
2017-12-24T08:50:22.134Z,1017.75
2017-12-24T08:51:02.541Z,1017.79
2017-12-24T08:51:43.300Z,1017.76
2017-12-24T08:52:25.019Z,1017.83
2017-12-24T08:53:05.112Z,1017.79
2017-12-24T08:53:45.696Z,1017.84
2017-12-24T08:54:26.842Z,1017.81
2017-12-24T08:55:07.595Z,1017.74
2017-12-24T08:55:48.837Z,1017.77
2017-12-24T08:56:29.340Z,1017.74
2017-12-24T08:57:09.743Z,1017.83
2017-12-24T08:57:51.122Z,1017.84
2017-12-24T08:58:30.716Z,1017.84
2017-12-24T08:59:11.421Z,1017.85
2017-12-24T08:59:51.480Z,1017.83
2017-12-24T09:00:31.876Z,1017.83
2017-12-24T09:01:12.328Z,1017.77
2017-12-24T09:01:52.779Z,1017.82
2017-12-24T09:02:33.471Z,1017.77
2017-12-24T09:03:14.276Z,1017.78
2017-12-24T09:03:55.000Z,1017.73
2017-12-24T09:04:35.993Z,1017.69
2017-12-24T09:05:16.390Z,1017.69
2017-12-24T09:05:56.761Z,1017.72
2017-12-24T09:06:37.613Z,1017.7
2017-12-24T09:07:18.406Z,1017.71
2017-12-24T09:07:59.571Z,1017.74
2017-12-24T09:08:39.533Z,1017.75
2017-12-24T09:09:20.124Z,1017.79
2017-12-24T09:10:00.222Z,1017.78
2017-12-24T09:10:41.185Z,1017.77
2017-12-24T09:11:21.897Z,1017.73
2017-12-24T09:12:02.363Z,1017.74
2017-12-24T09:17:13.812Z,1017.66
2017-12-24T09:17:54.248Z,1017.71
2017-12-24T09:18:34.811Z,1017.69
2017-12-24T09:19:15.498Z,1017.68
2017-12-24T09:19:59.219Z,1017.7
2017-12-24T09:20:45.798Z,1017.65
2017-12-24T09:21:27.144Z,1017.67
2017-12-24T09:22:07.632Z,1017.68
2017-12-24T09:22:48.070Z,1017.71
2017-12-24T09:23:28.426Z,1017.72
2017-12-24T09:24:09.284Z,1017.68
2017-12-24T09:24:50.000Z,1017.61
2017-12-24T09:25:30.457Z,1017.61
2017-12-24T09:26:11.904Z,1017.53
2017-12-24T09:26:53.459Z,1017.5
2017-12-24T09:27:35.023Z,1017.56
2017-12-24T09:28:21.702Z,1017.57
2017-12-24T09:29:02.099Z,1017.57
2017-12-24T09:29:43.050Z,1017.5
2017-12-24T09:30:23.794Z,1017.53
2017-12-24T09:31:08.291Z,1017.47
2017-12-24T09:31:48.666Z,1017.39
2017-12-24T09:32:29.995Z,1017.46
2017-12-24T09:33:10.997Z,1017.51
2017-12-24T09:33:51.420Z,1017.51
2017-12-24T09:34:32.259Z,1017.52
2017-12-24T09:35:13.327Z,1017.55
2017-12-24T09:35:53.856Z,1017.48
2017-12-24T09:36:36.113Z,1017.53
2017-12-24T09:43:08.616Z,1017.53
2017-12-24T09:43:57.724Z,1017.5
2017-12-24T09:44:38.653Z,1017.49
2017-12-24T09:45:20.873Z,1017.53